createdAt,value
2023-03-04T00:00:57.787Z,40.97
2023-03-04T00:03:24.873Z,34.13
2023-03-04T00:05:51.962Z,36.73
2023-03-04T00:08:19.032Z,35.77
2023-03-04T00:10:45.724Z,36.57
2023-03-04T00:13:12.886Z,36.23
2023-03-04T00:15:39.971Z,33.10
2023-03-04T00:18:07.028Z,38.47
2023-03-04T00:20:34.059Z,38.33
2023-03-04T00:23:01.087Z,37.90
2023-03-04T00:25:27.690Z,31.03
2023-03-04T00:27:54.319Z,30.87
2023-03-04T00:30:21.490Z,25.30
2023-03-04T00:32:48.200Z,31.13
2023-03-04T00:35:15.303Z,34.17
2023-03-04T00:37:42.389Z,28.53
2023-03-04T00:40:11.052Z,30.00
2023-03-04T00:42:38.180Z,34.13
2023-03-04T00:45:05.830Z,28.37
2023-03-04T00:47:32.436Z,32.97
2023-03-04T00:49:59.514Z,29.83
2023-03-04T00:52:26.536Z,30.13
2023-03-04T00:54:53.621Z,33.37
2023-03-04T00:57:20.737Z,30.93
2023-03-04T00:59:47.770Z,24.40
2023-03-04T01:02:14.567Z,35.23
2023-03-04T01:04:41.840Z,29.27
2023-03-04T01:07:08.710Z,28.20
2023-03-04T01:09:35.763Z,27.37
2023-03-04T01:12:02.877Z,28.10
2023-03-04T01:14:30.030Z,28.80
2023-03-04T01:16:57.130Z,26.60
2023-03-04T01:19:24.159Z,26.97
2023-03-04T01:21:51.234Z,28.23
2023-03-04T01:24:18.299Z,30.50
2023-03-04T01:26:45.549Z,24.03
2023-03-04T01:29:12.232Z,27.07
2023-03-04T01:31:39.257Z,23.67
2023-03-04T01:34:06.349Z,22.93
2023-03-04T01:36:33.368Z,23.63
2023-03-04T01:39:00.487Z,28.33
2023-03-04T01:41:28.148Z,26.57
2023-03-04T01:43:57.328Z,28.83
2023-03-04T01:46:24.811Z,25.10
2023-03-04T01:48:52.129Z,25.67
2023-03-04T01:51:20.856Z,24.40
2023-03-04T01:53:54.785Z,23.67
2023-03-04T01:56:40.142Z,30.20
2023-03-04T01:59:09.974Z,23.73
2023-03-04T02:01:38.270Z,28.57
2023-03-04T02:04:05.988Z,32.63
2023-03-04T02:06:33.952Z,25.57
2023-03-04T02:09:01.052Z,26.57
2023-03-04T02:11:27.767Z,23.87
2023-03-04T02:13:55.219Z,22.77
2023-03-04T02:16:22.261Z,24.90
2023-03-04T02:18:49.346Z,23.03
2023-03-04T02:21:30.506Z,20.57
2023-03-04T02:24:10.300Z,19.83
2023-03-04T02:26:37.225Z,28.67
2023-03-04T02:29:04.685Z,32.30
2023-03-04T02:31:33.468Z,19.77
2023-03-04T02:34:06.740Z,20.63
2023-03-04T02:36:34.864Z,16.53
2023-03-04T02:39:10.602Z,22.87
2023-03-04T02:41:38.448Z,20.40
2023-03-04T02:44:27.661Z,21.87
2023-03-04T02:46:55.148Z,18.70
2023-03-04T02:49:23.800Z,23.33
2023-03-04T02:51:53.230Z,21.17
2023-03-04T02:54:24.505Z,19.13
2023-03-04T02:56:53.547Z,17.17
2023-03-04T02:59:23.578Z,18.17
2023-03-04T03:01:51.666Z,15.03
2023-03-04T03:04:19.706Z,17.23
2023-03-04T03:06:46.595Z,16.07
2023-03-04T03:09:13.699Z,18.80
2023-03-04T03:11:40.847Z,17.10
2023-03-04T03:14:08.922Z,16.10
2023-03-04T03:16:36.008Z,17.80
2023-03-04T03:19:03.306Z,13.10
2023-03-04T03:21:31.046Z,12.37
2023-03-04T03:23:58.108Z,10.43
2023-03-04T03:26:25.184Z,21.73
2023-03-04T03:28:52.230Z,16.27
2023-03-04T03:31:20.052Z,10.23
2023-03-04T03:33:47.242Z,10.90
2023-03-04T03:36:14.422Z,9.20
2023-03-04T03:38:41.562Z,16.00
2023-03-04T03:41:08.675Z,15.20
2023-03-04T03:43:35.750Z,13.13
2023-03-04T03:46:03.312Z,17.40
2023-03-04T03:48:30.357Z,17.40
2023-03-04T03:50:57.410Z,19.73
2023-03-04T03:53:24.461Z,14.43
2023-03-04T03:55:51.548Z,12.23
2023-03-04T03:58:18.635Z,10.30
2023-03-04T04:00:45.804Z,12.73
2023-03-04T04:03:15.898Z,21.07
2023-03-04T04:05:42.918Z,11.60
2023-03-04T04:08:17.749Z,11.37
2023-03-04T04:10:44.623Z,11.43
2023-03-04T04:13:11.847Z,7.53
2023-03-04T04:15:38.946Z,16.80
2023-03-04T04:18:09.431Z,15.30
2023-03-04T04:20:36.670Z,11.87
2023-03-04T04:23:04.071Z,14.07
2023-03-04T04:25:31.140Z,13.03
2023-03-04T04:27:58.196Z,11.90
2023-03-04T04:30:25.311Z,6.83
2023-03-04T04:32:52.137Z,12.50
2023-03-04T04:35:19.278Z,22.90
2023-03-04T04:37:45.897Z,9.60
2023-03-04T04:40:13.136Z,15.47
2023-03-04T04:42:40.207Z,6.70
2023-03-04T04:45:07.698Z,15.07
2023-03-04T04:47:34.278Z,10.30
2023-03-04T04:50:01.335Z,12.17
2023-03-04T04:52:28.376Z,11.93
2023-03-04T04:54:55.433Z,9.93
2023-03-04T04:57:22.462Z,11.47
2023-03-04T04:59:49.627Z,10.73
2023-03-04T05:02:16.644Z,14.20
2023-03-04T05:04:43.712Z,16.43
2023-03-04T05:07:10.329Z,8.13
2023-03-04T05:09:37.390Z,9.67
2023-03-04T05:12:04.473Z,14.73
2023-03-04T05:14:31.484Z,11.47
2023-03-04T05:16:58.508Z,10.20
2023-03-04T05:19:25.579Z,9.70
2023-03-04T05:21:52.200Z,11.67
2023-03-04T05:24:19.275Z,6.37
2023-03-04T05:26:46.336Z,7.73
2023-03-04T05:29:13.361Z,10.00
2023-03-04T05:31:40.440Z,7.63
2023-03-04T05:34:07.476Z,10.57
2023-03-04T05:36:34.099Z,7.40
2023-03-04T05:39:01.152Z,6.83
2023-03-04T05:41:27.807Z,11.17
2023-03-04T05:43:54.942Z,12.33
2023-03-04T05:46:25.719Z,8.67
2023-03-04T05:48:54.046Z,9.87
2023-03-04T05:51:21.327Z,11.03
2023-03-04T05:53:48.839Z,4.03
2023-03-04T05:56:18.826Z,7.80
2023-03-04T05:58:47.422Z,10.70
2023-03-04T06:01:14.872Z,5.47
2023-03-04T06:03:43.289Z,6.37
2023-03-04T06:06:10.415Z,12.70
2023-03-04T06:08:37.256Z,12.17
2023-03-04T06:11:05.424Z,11.33
2023-03-04T06:13:32.483Z,9.57
2023-03-04T06:16:00.195Z,7.40
2023-03-04T06:18:28.989Z,10.03
2023-03-04T06:21:00.332Z,10.00
2023-03-04T06:23:27.777Z,9.23
2023-03-04T06:25:55.827Z,9.30
2023-03-04T06:28:23.050Z,14.27
2023-03-04T06:30:53.012Z,12.77
2023-03-04T06:33:19.859Z,8.07
2023-03-04T06:35:46.907Z,8.17
2023-03-04T06:38:13.983Z,9.43
2023-03-04T06:40:41.066Z,8.03
2023-03-04T06:43:08.091Z,9.40
2023-03-04T06:45:35.281Z,5.83
2023-03-04T06:48:02.356Z,7.43
2023-03-04T06:50:29.377Z,7.00
2023-03-04T06:52:58.775Z,7.50
2023-03-04T06:55:25.887Z,11.30
2023-03-04T06:57:52.932Z,12.03
2023-03-04T07:00:20.174Z,11.07
2023-03-04T07:02:47.176Z,11.00
2023-03-04T07:05:14.218Z,6.17
2023-03-04T07:07:41.253Z,6.97
2023-03-04T07:10:09.985Z,16.30
2023-03-04T07:12:36.840Z,5.93
2023-03-04T07:15:03.934Z,16.77
2023-03-04T07:17:30.983Z,7.27
2023-03-04T07:19:57.567Z,9.53
2023-03-04T07:22:24.613Z,8.77
2023-03-04T07:24:51.655Z,3.77
2023-03-04T07:27:18.678Z,7.70
2023-03-04T07:29:45.699Z,11.93
2023-03-04T07:32:12.884Z,6.77
2023-03-04T07:34:39.979Z,8.47
2023-03-04T07:37:07.022Z,8.63
2023-03-04T07:39:33.628Z,10.13
2023-03-04T07:42:00.253Z,5.57
2023-03-04T07:44:27.358Z,7.10
2023-03-04T07:46:54.440Z,9.17
2023-03-04T07:49:21.504Z,9.63
2023-03-04T07:51:48.207Z,12.13
2023-03-04T07:54:14.782Z,7.13
2023-03-04T07:56:41.947Z,16.57
2023-03-04T07:59:08.981Z,13.37
2023-03-04T08:01:37.890Z,4.77
2023-03-04T08:04:07.273Z,6.63
2023-03-04T08:06:34.521Z,6.57
2023-03-04T08:09:06.455Z,11.63
2023-03-04T08:11:35.147Z,7.17
2023-03-04T08:14:02.056Z,9.60
2023-03-04T08:16:29.214Z,7.37
2023-03-04T08:18:58.343Z,3.87
2023-03-04T08:21:26.367Z,6.70
2023-03-04T08:23:53.787Z,6.13
2023-03-04T08:26:28.108Z,6.70
2023-03-04T08:28:55.234Z,4.30
2023-03-04T08:31:22.294Z,11.10
2023-03-04T08:33:49.519Z,8.43
2023-03-04T08:36:16.752Z,6.13
2023-03-04T08:38:43.699Z,12.63
2023-03-04T08:41:10.291Z,10.07
2023-03-04T08:43:37.355Z,10.73
2023-03-04T08:46:04.753Z,10.70
2023-03-04T08:48:31.939Z,7.17
2023-03-04T08:50:59.151Z,7.17
2023-03-04T08:53:25.992Z,11.00
2023-03-04T08:55:53.355Z,8.40
2023-03-04T08:58:20.439Z,10.07
2023-03-04T09:00:48.807Z,19.20
2023-03-04T09:03:16.115Z,21.57
2023-03-04T09:05:45.232Z,8.33
2023-03-04T09:08:12.151Z,6.07
2023-03-04T09:10:38.801Z,5.13
2023-03-04T09:13:06.295Z,6.77
2023-03-04T09:15:35.951Z,8.17
2023-03-04T09:18:04.063Z,8.70
2023-03-04T09:20:31.846Z,8.97
2023-03-04T09:22:58.940Z,6.43
2023-03-04T09:25:25.979Z,5.80
2023-03-04T09:27:53.036Z,9.37
2023-03-04T09:30:20.181Z,7.37
2023-03-04T09:32:46.799Z,8.33
2023-03-04T09:35:13.553Z,7.10
2023-03-04T09:37:41.686Z,5.20
2023-03-04T09:40:16.022Z,5.80
2023-03-04T09:42:47.589Z,6.33
2023-03-04T09:45:19.579Z,4.77
2023-03-04T09:47:47.436Z,6.40
2023-03-04T09:50:14.524Z,7.77
2023-03-04T09:52:54.405Z,9.60
2023-03-04T09:55:21.547Z,5.80
2023-03-04T09:58:11.457Z,4.67
2023-03-04T10:01:05.107Z,4.50
2023-03-04T10:03:48.715Z,5.23
2023-03-04T10:06:20.887Z,9.07
2023-03-04T10:08:57.854Z,7.27
2023-03-04T10:11:45.056Z,10.10
2023-03-04T10:14:23.599Z,3.80
2023-03-04T10:16:56.391Z,41.17
2023-03-04T10:19:39.691Z,4.47
2023-03-04T10:22:27.332Z,6.63
2023-03-04T10:24:56.891Z,25.60
2023-03-04T10:27:24.758Z,12.80
2023-03-04T10:29:51.548Z,2.40
2023-03-04T10:32:20.773Z,4.37
2023-03-04T10:34:47.915Z,8.53
2023-03-04T10:37:15.074Z,4.00
2023-03-04T10:39:44.881Z,4.23
2023-03-04T10:42:14.590Z,6.63
2023-03-04T10:44:56.312Z,5.20
2023-03-04T10:47:25.283Z,6.40
2023-03-04T10:49:55.175Z,6.43
2023-03-04T10:52:38.263Z,6.37
2023-03-04T10:55:27.276Z,5.43
2023-03-04T10:58:05.197Z,5.60
2023-03-04T11:00:37.128Z,6.33
2023-03-04T11:03:29.944Z,4.33
2023-03-04T11:06:16.640Z,5.10
2023-03-04T11:08:43.757Z,13.43
2023-03-04T11:11:44.369Z,3.47
2023-03-04T11:14:39.582Z,3.77
2023-03-04T11:17:19.376Z,6.47
2023-03-04T11:19:53.085Z,3.43
2023-03-04T11:22:23.096Z,5.67
2023-03-04T11:24:58.969Z,7.10
2023-03-04T11:27:44.354Z,8.83
2023-03-04T11:30:13.897Z,3.17
2023-03-04T11:32:45.756Z,4.60
2023-03-04T11:35:42.868Z,8.00
2023-03-04T11:38:18.476Z,7.73
2023-03-04T11:41:04.500Z,4.13
2023-03-04T11:43:43.374Z,4.37
2023-03-04T11:46:32.021Z,4.83
2023-03-04T11:48:59.150Z,8.67
2023-03-04T11:51:34.953Z,4.60
2023-03-04T11:54:32.228Z,7.07
2023-03-04T11:57:23.591Z,10.97
2023-03-04T12:00:13.217Z,4.60
2023-03-04T12:03:14.243Z,5.37
2023-03-04T12:05:52.766Z,8.03
2023-03-04T12:08:25.514Z,4.87
2023-03-04T12:10:59.037Z,5.33
2023-03-04T12:13:54.527Z,5.90
2023-03-04T12:16:48.497Z,4.57
2023-03-04T12:19:24.196Z,5.33
2023-03-04T12:22:02.650Z,8.50
2023-03-04T12:24:34.640Z,7.63
2023-03-04T12:27:41.987Z,4.53
2023-03-04T12:30:48.867Z,6.10
2023-03-04T12:33:32.500Z,4.23
2023-03-04T12:36:18.307Z,6.13
2023-03-04T12:39:00.822Z,11.80
2023-03-04T12:41:43.046Z,9.33
2023-03-04T12:44:12.614Z,4.53
2023-03-04T12:47:14.438Z,5.73
2023-03-04T12:50:06.844Z,3.83
2023-03-04T12:52:44.683Z,10.93
2023-03-04T12:55:15.939Z,11.73
2023-03-04T12:57:43.156Z,9.37
2023-03-04T13:00:29.735Z,9.10
2023-03-04T13:03:18.209Z,4.40
2023-03-04T13:05:47.880Z,11.00
2023-03-04T13:08:33.121Z,8.87
2023-03-04T13:11:25.790Z,5.83
2023-03-04T13:14:03.076Z,7.67
2023-03-04T13:16:45.500Z,5.83
2023-03-04T13:19:52.545Z,3.97
2023-03-04T13:22:39.121Z,3.93
2023-03-04T13:25:46.525Z,3.50
2023-03-04T13:28:21.901Z,3.40
2023-03-04T13:30:55.743Z,4.70
2023-03-04T13:33:23.013Z,5.70
2023-03-04T13:35:54.362Z,7.50
2023-03-04T13:38:27.285Z,4.17
2023-03-04T13:41:13.912Z,12.53
2023-03-04T13:43:41.812Z,5.77
2023-03-04T13:46:20.874Z,5.87
2023-03-04T13:48:50.636Z,9.97
2023-03-04T13:51:34.175Z,2.37
2023-03-04T13:54:00.913Z,3.63
2023-03-04T13:56:41.618Z,5.60
2023-03-04T13:59:08.621Z,3.87
2023-03-04T14:01:36.734Z,5.10
2023-03-04T14:04:15.563Z,6.83
2023-03-04T14:06:44.110Z,10.80
2023-03-04T14:09:21.952Z,11.83
2023-03-04T14:11:50.357Z,8.20
2023-03-04T14:14:23.984Z,7.43
2023-03-04T14:16:57.759Z,4.60
2023-03-04T14:19:31.154Z,11.33
2023-03-04T14:21:59.226Z,5.80
2023-03-04T14:24:26.491Z,4.67
2023-03-04T14:27:13.372Z,6.13
2023-03-04T14:29:40.485Z,4.53
2023-03-04T14:32:07.624Z,5.30
2023-03-04T14:34:37.696Z,4.37
2023-03-04T14:37:19.475Z,4.27
2023-03-04T14:39:50.599Z,2.70
2023-03-04T14:42:20.164Z,5.70
2023-03-04T14:44:49.723Z,3.00
2023-03-04T14:47:36.169Z,7.03
2023-03-04T14:50:11.195Z,6.03
2023-03-04T14:52:39.304Z,3.50
2023-03-04T14:55:14.999Z,4.23
2023-03-04T14:57:44.166Z,6.07
2023-03-04T15:00:26.160Z,4.67
2023-03-04T15:02:57.295Z,6.30
2023-03-04T15:05:28.201Z,9.03
2023-03-04T15:07:59.612Z,3.23
2023-03-04T15:10:34.073Z,4.17
2023-03-04T15:13:03.496Z,3.60
2023-03-04T15:15:46.391Z,7.60
2023-03-04T15:18:23.893Z,6.43
2023-03-04T15:20:56.123Z,5.77
2023-03-04T15:23:23.416Z,3.13
2023-03-04T15:25:56.048Z,7.17
2023-03-04T15:28:23.977Z,6.03
2023-03-04T15:30:51.116Z,4.67
2023-03-04T15:33:20.768Z,3.93
2023-03-04T15:35:53.662Z,5.63
2023-03-04T15:38:20.982Z,7.80
2023-03-04T15:40:48.298Z,6.67
2023-03-04T15:43:20.260Z,7.27
2023-03-04T15:45:48.278Z,4.57
2023-03-04T15:48:17.140Z,4.00
2023-03-04T15:50:45.533Z,4.20
2023-03-04T15:53:28.546Z,7.87
2023-03-04T15:55:55.446Z,2.83
2023-03-04T15:58:22.458Z,7.83
2023-03-04T16:00:49.142Z,6.03
2023-03-04T16:03:17.591Z,3.07
2023-03-04T16:05:46.409Z,2.57
2023-03-04T16:08:14.633Z,7.03
2023-03-04T16:10:43.683Z,3.63
2023-03-04T16:13:17.776Z,4.53
2023-03-04T16:15:45.510Z,6.03
2023-03-04T16:18:13.645Z,7.07
2023-03-04T16:20:43.587Z,5.50
2023-03-04T16:23:14.527Z,3.43
2023-03-04T16:25:44.351Z,4.90
2023-03-04T16:28:12.112Z,6.80
2023-03-04T16:30:38.917Z,3.00
2023-03-04T16:33:05.549Z,1.87
2023-03-04T16:35:34.447Z,3.73
2023-03-04T16:38:01.320Z,8.17
2023-03-04T16:40:30.150Z,5.60
2023-03-04T16:42:57.213Z,3.37
2023-03-04T16:45:26.493Z,7.33
2023-03-04T16:47:53.756Z,4.80
2023-03-04T16:50:27.369Z,3.97
2023-03-04T16:52:55.388Z,9.47
2023-03-04T16:55:25.442Z,5.20
2023-03-04T16:57:53.070Z,3.60
2023-03-04T17:00:21.319Z,5.83
2023-03-04T17:02:55.599Z,4.33
2023-03-04T17:05:23.814Z,1.43
2023-03-04T17:07:50.868Z,2.60
2023-03-04T17:10:17.799Z,5.23
2023-03-04T17:12:44.668Z,6.70
2023-03-04T17:15:13.492Z,5.03
2023-03-04T17:17:41.209Z,3.67
2023-03-04T17:20:10.029Z,9.18
2023-03-04T17:22:37.178Z,5.87
2023-03-04T17:25:04.584Z,4.47
2023-03-04T17:27:31.572Z,8.93
2023-03-04T17:29:58.689Z,7.87
2023-03-04T17:32:31.402Z,5.77
2023-03-04T17:34:58.851Z,1.37
2023-03-04T17:37:26.228Z,5.23
2023-03-04T17:39:53.245Z,5.70
2023-03-04T17:42:20.292Z,6.90
2023-03-04T17:44:47.038Z,5.70
2023-03-04T17:47:14.156Z,6.67
2023-03-04T17:49:40.843Z,7.90
2023-03-04T17:52:07.420Z,6.67
2023-03-04T17:54:36.406Z,3.50
2023-03-04T17:57:03.250Z,8.57
2023-03-04T17:59:30.300Z,7.97
2023-03-04T18:01:57.350Z,7.37
2023-03-04T18:04:24.291Z,10.23
2023-03-04T18:06:51.014Z,6.87
2023-03-04T18:09:17.627Z,5.20
2023-03-04T18:11:44.352Z,4.67
2023-03-04T18:14:14.678Z,6.70
2023-03-04T18:16:42.157Z,5.73
2023-03-04T18:19:09.420Z,6.13
2023-03-04T18:21:36.487Z,5.97
2023-03-04T18:24:03.624Z,5.83
2023-03-04T18:26:30.945Z,7.50
2023-03-04T18:28:58.055Z,7.53
2023-03-04T18:31:30.196Z,8.83
2023-03-04T18:34:03.031Z,4.27
2023-03-04T18:36:30.154Z,6.07
2023-03-04T18:38:59.243Z,8.73
2023-03-04T18:41:27.768Z,9.57
2023-03-04T18:43:55.114Z,4.87
2023-03-04T18:46:47.542Z,5.33
2023-03-04T18:49:14.992Z,5.07
2023-03-04T18:51:42.033Z,5.60
2023-03-04T18:54:09.258Z,5.37
2023-03-04T18:56:38.394Z,7.13
2023-03-04T18:59:21.005Z,10.30
2023-03-04T19:01:50.524Z,7.97
2023-03-04T19:04:20.071Z,5.37
2023-03-04T19:06:47.182Z,11.37
2023-03-04T19:09:14.305Z,7.57
2023-03-04T19:11:41.475Z,7.27
2023-03-04T19:14:08.118Z,12.70
2023-03-04T19:16:35.812Z,9.53
2023-03-04T19:19:03.251Z,6.47
2023-03-04T19:21:29.936Z,9.03
2023-03-04T19:23:57.150Z,12.90
2023-03-04T19:26:23.986Z,10.37
2023-03-04T19:28:51.052Z,10.57
2023-03-04T19:31:17.879Z,10.77
2023-03-04T19:33:44.534Z,7.50
2023-03-04T19:36:11.215Z,9.37
2023-03-04T19:38:38.368Z,5.33
2023-03-04T19:41:15.803Z,7.10
2023-03-04T19:43:42.895Z,6.70
2023-03-04T19:46:11.532Z,7.67
2023-03-04T19:48:39.616Z,10.03
2023-03-04T19:51:18.732Z,7.57
2023-03-04T19:53:45.679Z,10.87
2023-03-04T19:56:12.928Z,9.07
2023-03-04T19:58:39.822Z,10.00
2023-03-04T20:01:07.211Z,15.63
2023-03-04T20:03:34.108Z,12.03
2023-03-04T20:06:08.722Z,11.87
2023-03-04T20:08:38.357Z,7.40
2023-03-04T20:11:12.653Z,8.07
2023-03-04T20:13:39.558Z,8.57
2023-03-04T20:16:11.028Z,12.60
2023-03-04T20:18:39.018Z,3.10
2023-03-04T20:21:06.314Z,7.40
2023-03-04T20:23:33.936Z,8.03
2023-03-04T20:26:00.873Z,8.60
2023-03-04T20:28:28.184Z,8.93
2023-03-04T20:31:15.695Z,8.53
2023-03-04T20:33:43.474Z,7.40
2023-03-04T20:36:10.909Z,3.93
2023-03-04T20:38:38.052Z,8.80
2023-03-04T20:41:05.642Z,3.83
2023-03-04T20:43:32.407Z,6.37
2023-03-04T20:46:24.631Z,7.03
2023-03-04T20:48:51.842Z,6.57
2023-03-04T20:51:18.500Z,10.57
2023-03-04T20:53:45.158Z,7.00
2023-03-04T20:56:12.583Z,9.20
2023-03-04T20:58:39.205Z,9.10
2023-03-04T21:01:06.012Z,3.43
2023-03-04T21:03:32.813Z,2.63
2023-03-04T21:06:04.316Z,8.63
2023-03-04T21:08:31.538Z,5.30
2023-03-04T21:10:58.572Z,11.67
2023-03-04T21:13:30.086Z,6.27
2023-03-04T21:15:57.915Z,8.27
2023-03-04T21:18:25.808Z,10.03
2023-03-04T21:20:53.792Z,8.73
2023-03-04T21:23:21.502Z,7.43
2023-03-04T21:25:48.714Z,5.33
2023-03-04T21:28:16.069Z,3.60
2023-03-04T21:30:42.963Z,7.43
2023-03-04T21:33:17.985Z,5.57
2023-03-04T21:35:45.918Z,6.20
2023-03-04T21:38:12.760Z,6.90
2023-03-04T21:40:39.877Z,4.90
2023-03-04T21:43:07.018Z,9.50
2023-03-04T21:45:33.738Z,10.47
2023-03-04T21:48:00.351Z,7.77
2023-03-04T21:50:26.982Z,7.50
2023-03-04T21:52:54.053Z,5.80
2023-03-04T21:55:21.104Z,5.43
2023-03-04T21:57:48.166Z,7.60
2023-03-04T22:00:15.954Z,8.07
2023-03-04T22:02:43.027Z,6.77
2023-03-04T22:05:09.754Z,7.43
2023-03-04T22:07:36.916Z,3.23
2023-03-04T22:10:06.538Z,4.57
2023-03-04T22:12:33.318Z,5.10
2023-03-04T22:15:00.150Z,7.57
2023-03-04T22:17:27.218Z,6.60
2023-03-04T22:19:55.066Z,5.00
2023-03-04T22:22:21.702Z,3.03
2023-03-04T22:24:48.745Z,7.37
2023-03-04T22:27:15.862Z,9.47
2023-03-04T22:29:42.919Z,5.30
2023-03-04T22:32:10.142Z,5.17
2023-03-04T22:34:37.280Z,5.57
2023-03-04T22:37:04.490Z,5.23
2023-03-04T22:39:31.525Z,5.30
2023-03-04T22:41:58.125Z,8.40
2023-03-04T22:44:25.148Z,5.87
2023-03-04T22:46:51.864Z,6.47
2023-03-04T22:49:19.146Z,6.83
2023-03-04T22:51:46.645Z,5.07
2023-03-04T22:54:15.651Z,10.93
2023-03-04T22:56:43.061Z,5.73
2023-03-04T22:59:10.122Z,3.33
2023-03-04T23:01:37.287Z,5.07
2023-03-04T23:04:04.441Z,8.87
2023-03-04T23:06:31.546Z,12.13
2023-03-04T23:08:59.395Z,7.27
2023-03-04T23:11:31.792Z,6.70
2023-03-04T23:14:01.934Z,9.73
2023-03-04T23:16:29.079Z,8.93
2023-03-04T23:18:58.199Z,4.40
2023-03-04T23:21:28.362Z,8.00
2023-03-04T23:23:55.173Z,7.93
2023-03-04T23:26:24.769Z,12.27
2023-03-04T23:28:52.097Z,8.43
2023-03-04T23:31:18.800Z,8.87
2023-03-04T23:33:47.739Z,8.20
2023-03-04T23:36:17.224Z,5.93
2023-03-04T23:38:45.668Z,7.97
2023-03-04T23:41:20.630Z,7.43
2023-03-04T23:43:48.828Z,7.90
2023-03-04T23:46:16.210Z,6.90
2023-03-04T23:48:46.315Z,7.40
2023-03-04T23:51:18.388Z,8.97
2023-03-04T23:53:45.662Z,6.13
2023-03-04T23:56:16.113Z,3.77
2023-03-04T23:58:43.724Z,8.87
